createdAt,value
2019-04-10T00:00:47.674Z,100634.63
2019-04-10T00:03:25.716Z,100628.62
2019-04-10T00:05:46.171Z,100637.86
2019-04-10T00:08:14.481Z,100628.73
2019-04-10T00:10:43.729Z,100625.00
2019-04-10T00:13:12.190Z,100627.30
2019-04-10T00:15:40.367Z,100627.62
2019-04-10T00:18:09.457Z,100626.00
2019-04-10T00:20:37.647Z,100632.71
2019-04-10T00:23:06.792Z,100626.70
2019-04-10T00:25:35.345Z,100623.35
2019-04-10T00:28:03.578Z,100634.06
2019-04-10T00:30:31.779Z,100623.30
2019-04-10T00:33:00.564Z,100625.55
2019-04-10T00:35:29.735Z,100628.57
2019-04-10T00:37:58.121Z,100623.90
2019-04-10T00:40:26.400Z,100625.91
2019-04-10T00:42:56.983Z,100634.44
2019-04-10T00:45:25.106Z,100637.97
2019-04-10T00:47:53.462Z,100640.63
2019-04-10T00:50:22.329Z,100641.14
2019-04-10T00:52:50.624Z,100648.62
2019-04-10T00:55:19.666Z,100651.62
2019-04-10T00:57:47.992Z,100655.95
2019-04-10T01:00:16.941Z,100645.81
2019-04-10T01:02:45.185Z,100653.33
2019-04-10T01:05:13.479Z,100648.16
2019-04-10T01:07:44.191Z,100656.02
2019-04-10T01:10:12.222Z,100652.15
2019-04-10T01:12:40.547Z,100661.23
2019-04-10T01:15:10.026Z,100650.30
2019-04-10T01:17:38.312Z,100650.50
2019-04-10T01:20:07.157Z,100650.92
2019-04-10T01:22:35.582Z,100650.50
2019-04-10T01:25:06.083Z,100657.02
2019-04-10T01:27:34.331Z,100648.88
2019-04-10T01:30:02.556Z,100535.52
2019-04-10T01:32:30.759Z,100654.63
2019-04-10T01:35:00.147Z,100645.81
2019-04-10T01:37:29.051Z,100644.44
2019-04-10T01:39:57.387Z,100646.95
2019-04-10T01:42:25.593Z,100644.31
2019-04-10T01:44:53.817Z,100651.70
2019-04-10T01:47:22.070Z,100647.41
2019-04-10T01:49:50.358Z,100651.35
2019-04-10T01:52:18.568Z,100652.23
2019-04-10T01:54:47.140Z,100655.75
2019-04-10T01:57:16.423Z,100650.70
2019-04-10T01:59:45.898Z,100651.48
2019-04-10T02:02:16.867Z,100646.77
2019-04-10T02:04:45.251Z,100649.86
2019-04-10T02:07:13.901Z,100652.36
2019-04-10T02:09:42.159Z,100653.37
2019-04-10T02:12:10.421Z,100653.86
2019-04-10T02:14:38.669Z,100655.28
2019-04-10T02:17:06.826Z,100653.92
2019-04-10T02:19:35.063Z,100650.09
2019-04-10T02:22:04.337Z,100654.63
2019-04-10T02:24:33.389Z,100654.52
2019-04-10T02:27:02.406Z,100656.27
2019-04-10T02:29:31.497Z,100657.20
2019-04-10T02:31:59.912Z,100664.09
2019-04-10T02:34:28.417Z,100662.02
2019-04-10T02:36:58.484Z,100665.04
2019-04-10T02:39:34.195Z,100659.38
2019-04-10T02:41:58.253Z,100657.31
2019-04-10T02:44:28.406Z,100660.76
2019-04-10T02:46:59.092Z,100666.02
2019-04-10T02:49:28.010Z,100662.48
2019-04-10T02:51:57.031Z,100661.73
2019-04-10T02:54:26.926Z,100669.97
2019-04-10T02:56:56.769Z,100667.89
2019-04-10T02:59:25.148Z,100658.34
2019-04-10T03:01:53.508Z,100664.87
2019-04-10T03:04:21.664Z,100663.63
2019-04-10T03:06:51.394Z,100660.17
2019-04-10T03:09:40.541Z,100664.86
2019-04-10T03:11:49.923Z,100664.50
2019-04-10T03:14:18.958Z,100668.39
2019-04-10T03:16:47.929Z,100666.25
2019-04-10T03:19:17.055Z,100675.36
2019-04-10T03:21:45.292Z,100672.47
2019-04-10T03:24:13.894Z,100678.94
2019-04-10T03:26:42.126Z,100677.72
2019-04-10T03:29:10.355Z,100672.13
2019-04-10T03:31:40.844Z,100682.95
2019-04-10T03:34:21.799Z,100679.89
2019-04-10T03:36:48.894Z,100688.11
2019-04-10T03:39:17.463Z,100688.59
2019-04-10T03:41:45.713Z,100685.55
2019-04-10T03:44:14.540Z,100686.47
2019-04-10T03:46:43.032Z,100692.55
2019-04-10T03:49:11.767Z,100688.26
2019-04-10T03:51:40.840Z,100693.11
2019-04-10T03:54:09.183Z,100694.85
2019-04-10T03:56:38.150Z,100699.59
2019-04-10T03:59:06.485Z,100695.71
2019-04-10T04:01:35.362Z,100700.47
2019-04-10T04:04:04.880Z,100703.94
2019-04-10T04:06:33.396Z,100701.33
2019-04-10T04:09:08.879Z,100699.20
2019-04-10T04:11:31.640Z,100701.36
2019-04-10T04:13:59.874Z,100704.81
2019-04-10T04:16:28.040Z,100703.53
2019-04-10T04:18:56.246Z,100704.77
2019-04-10T04:21:24.465Z,100710.02
2019-04-10T04:23:53.259Z,100717.81
2019-04-10T04:26:21.500Z,100713.12
2019-04-10T04:28:49.706Z,100713.15
2019-04-10T04:31:18.150Z,100718.74
2019-04-10T04:33:46.924Z,100714.02
2019-04-10T04:36:16.003Z,100721.81
2019-04-10T04:38:45.224Z,100720.52
2019-04-10T04:41:13.538Z,100731.34
2019-04-10T04:43:43.398Z,100729.17
2019-04-10T04:46:12.060Z,100729.60
2019-04-10T04:48:41.208Z,100736.58
2019-04-10T04:51:09.500Z,100731.78
2019-04-10T04:53:37.705Z,100738.75
2019-04-10T04:56:05.929Z,100740.06
2019-04-10T04:58:34.173Z,100750.86
2019-04-10T05:01:02.361Z,100743.51
2019-04-10T05:03:30.577Z,100745.23
2019-04-10T05:05:58.799Z,100754.73
2019-04-10T05:08:28.048Z,100756.05
2019-04-10T05:10:56.313Z,100752.16
2019-04-10T05:13:24.513Z,100755.63
2019-04-10T05:15:53.369Z,100769.03
2019-04-10T05:18:22.980Z,100767.73
2019-04-10T05:20:52.406Z,100775.95
2019-04-10T05:23:20.828Z,100777.23
2019-04-10T05:25:49.795Z,100777.69
2019-04-10T05:28:18.997Z,100784.59
2019-04-10T05:30:47.652Z,100782.87
2019-04-10T05:33:16.249Z,100783.30
2019-04-10T05:35:44.449Z,100782.87
2019-04-10T05:38:13.525Z,100789.78
2019-04-10T05:40:42.227Z,100791.09
2019-04-10T05:43:11.471Z,100797.14
2019-04-10T05:45:40.125Z,100800.17
2019-04-10T05:48:08.812Z,100805.36
2019-04-10T05:50:37.816Z,100810.55
2019-04-10T05:53:06.147Z,100808.81
2019-04-10T05:55:34.355Z,100813.13
2019-04-10T05:58:02.576Z,100813.13
2019-04-10T06:00:30.791Z,100819.20
2019-04-10T06:02:59.019Z,100815.30
2019-04-10T06:05:27.224Z,100821.36
2019-04-10T06:07:55.486Z,100823.52
2019-04-10T06:10:24.654Z,100828.70
2019-04-10T06:12:53.105Z,100831.31
2019-04-10T06:15:21.322Z,100833.90
2019-04-10T06:17:49.553Z,100835.62
2019-04-10T06:20:17.756Z,100827.86
2019-04-10T06:22:47.227Z,100839.09
2019-04-10T06:25:16.378Z,100839.09
2019-04-10T06:27:45.280Z,100835.64
2019-04-10T06:30:13.492Z,100839.98
2019-04-10T06:32:41.716Z,100839.98
2019-04-10T06:35:11.023Z,100835.63
2019-04-10T06:37:40.088Z,100839.96
2019-04-10T06:40:17.066Z,100841.26
2019-04-10T06:42:46.109Z,100846.46
2019-04-10T06:45:09.291Z,100840.80
2019-04-10T06:47:38.225Z,100848.62
2019-04-10T06:50:07.030Z,100845.18
2019-04-10T06:52:35.259Z,100853.41
2019-04-10T06:55:05.034Z,100858.16
2019-04-10T06:57:45.103Z,100853.40
2019-04-10T07:00:06.767Z,100856.42
2019-04-10T07:02:37.131Z,100858.59
2019-04-10T07:05:17.475Z,100853.38
2019-04-10T07:07:51.915Z,100859.88
2019-04-10T07:10:26.084Z,100855.56
2019-04-10T07:12:45.787Z,100865.52
2019-04-10T07:15:18.511Z,100863.36
2019-04-10T07:17:44.834Z,100860.76
2019-04-10T07:20:15.473Z,100869.42
2019-04-10T07:22:46.539Z,100869.41
2019-04-10T07:25:14.384Z,100866.39
2019-04-10T07:27:44.053Z,100871.58
2019-04-10T07:30:12.347Z,100872.02
2019-04-10T07:32:44.256Z,100877.17
2019-04-10T07:35:12.757Z,100877.21
2019-04-10T07:37:40.503Z,100881.96
2019-04-10T07:40:08.894Z,100881.88
2019-04-10T07:42:40.276Z,100884.05
2019-04-10T07:45:07.047Z,100871.05
2019-04-10T07:47:35.619Z,100876.66
2019-04-10T07:50:08.591Z,100887.48
2019-04-10T07:52:37.169Z,100889.59
2019-04-10T07:55:06.608Z,100887.44
2019-04-10T07:57:34.919Z,100882.61
2019-04-10T08:00:03.262Z,100891.72
2019-04-10T08:02:31.737Z,100891.69
2019-04-10T08:05:00.185Z,100899.48
2019-04-10T08:07:32.596Z,100899.92
2019-04-10T08:09:59.290Z,100902.95
2019-04-10T08:12:37.618Z,100898.55
2019-04-10T08:14:57.540Z,100898.95
2019-04-10T08:17:26.269Z,100895.86
2019-04-10T08:19:54.508Z,100900.17
2019-04-10T08:22:22.786Z,100900.61
2019-04-10T08:24:51.246Z,100899.42
2019-04-10T08:27:19.558Z,100901.11
2019-04-10T08:29:48.481Z,100909.68
2019-04-10T08:32:16.754Z,100910.98
2019-04-10T08:34:45.008Z,100905.63
2019-04-10T08:37:14.422Z,100901.55
2019-04-10T08:39:45.967Z,100902.41
2019-04-10T08:42:12.777Z,100907.06
2019-04-10T08:44:41.008Z,100909.20
2019-04-10T08:47:09.235Z,100910.34
2019-04-10T08:49:37.448Z,100912.55
2019-04-10T08:52:06.172Z,100908.88
2019-04-10T08:54:34.576Z,100908.70
2019-04-10T08:57:03.311Z,100912.49
2019-04-10T08:59:31.923Z,100916.80
2019-04-10T09:02:00.199Z,100909.79
2019-04-10T09:04:28.761Z,100921.23
2019-04-10T09:06:57.955Z,100918.20
2019-04-10T09:09:27.866Z,100917.91
2019-04-10T09:11:56.264Z,100918.11
2019-04-10T09:14:25.230Z,100914.73
2019-04-10T09:16:55.208Z,100920.75
2019-04-10T09:19:23.484Z,100925.81
2019-04-10T09:21:52.875Z,100922.50
2019-04-10T09:24:21.680Z,100926.98
2019-04-10T09:26:50.817Z,100915.11
2019-04-10T09:29:21.774Z,100917.17
2019-04-10T09:31:50.241Z,100913.19
2019-04-10T09:34:18.578Z,100909.09
2019-04-10T09:36:46.802Z,100915.87
2019-04-10T09:39:15.081Z,100911.95
2019-04-10T09:41:43.923Z,100922.74
2019-04-10T09:44:12.398Z,100916.00
2019-04-10T09:46:40.883Z,100920.83
2019-04-10T09:49:09.176Z,100914.95
2019-04-10T09:51:38.296Z,100916.49
2019-04-10T09:54:07.785Z,100923.71
2019-04-10T09:56:36.415Z,100919.61
2019-04-10T09:59:05.378Z,100914.81
2019-04-10T10:01:33.863Z,100920.41
2019-04-10T10:04:02.007Z,100910.39
2019-04-10T10:06:34.701Z,100904.95
2019-04-10T10:09:00.537Z,100893.64
2019-04-10T10:11:28.755Z,100901.58
2019-04-10T10:13:56.964Z,100915.78
2019-04-10T10:16:25.506Z,100909.53
2019-04-10T10:18:54.070Z,100903.12
2019-04-10T10:21:22.405Z,100892.26
2019-04-10T10:23:50.625Z,100907.97
2019-04-10T10:26:19.705Z,100908.34
2019-04-10T10:28:48.171Z,100906.77
2019-04-10T10:31:16.320Z,100911.31
2019-04-10T10:33:44.536Z,100908.63
2019-04-10T10:36:13.705Z,100913.87
2019-04-10T10:38:41.979Z,100911.56
2019-04-10T10:41:10.185Z,100905.81
2019-04-10T10:43:38.433Z,100912.22
2019-04-10T10:46:07.153Z,100912.95
2019-04-10T10:48:35.809Z,100911.44
2019-04-10T10:51:04.623Z,100904.94
2019-04-10T10:53:32.950Z,100900.97
2019-04-10T10:56:02.157Z,100903.55
2019-04-10T10:58:30.469Z,100903.00
2019-04-10T11:00:59.761Z,100898.68
2019-04-10T11:03:28.146Z,100903.23
2019-04-10T11:06:57.789Z,100896.91
2019-04-10T11:08:33.867Z,100900.13
2019-04-10T11:11:06.261Z,100893.40
2019-04-10T11:13:34.785Z,100901.37
2019-04-10T11:16:07.103Z,100903.73
2019-04-10T11:18:35.246Z,100897.78
2019-04-10T11:21:08.045Z,100907.08
2019-04-10T11:23:33.841Z,100901.25
2019-04-10T11:26:02.311Z,100907.68
2019-04-10T11:28:32.254Z,100907.03
2019-04-10T11:31:01.402Z,100907.81
2019-04-10T11:33:30.747Z,100916.27
2019-04-10T11:36:00.139Z,100906.78
2019-04-10T11:38:29.075Z,100904.93
2019-04-10T11:43:27.889Z,100907.18
2019-04-10T11:45:59.287Z,100915.90
2019-04-10T11:48:29.098Z,100915.55
2019-04-10T11:51:00.684Z,100917.80
2019-04-10T11:53:27.362Z,100920.95
2019-04-10T11:55:57.033Z,100908.05
2019-04-10T11:58:28.956Z,100920.94
2019-04-10T12:00:58.080Z,100915.91
2019-04-10T12:03:27.002Z,100910.93
2019-04-10T12:05:57.208Z,100917.21
2019-04-10T12:13:26.624Z,100918.34
2019-04-10T12:15:54.877Z,100918.89
2019-04-10T12:18:23.079Z,100917.61
2019-04-10T12:20:51.581Z,100918.78
2019-04-10T12:23:20.872Z,100927.16
2019-04-10T12:25:49.430Z,100930.05
2019-04-10T12:28:17.966Z,100925.02
2019-04-10T12:30:46.250Z,100932.27
2019-04-10T12:33:14.454Z,100933.88
2019-04-10T12:35:42.761Z,100925.14
2019-04-10T12:38:13.249Z,100931.59
2019-04-10T12:40:40.918Z,100938.03
2019-04-10T12:43:09.135Z,100929.02
2019-04-10T12:45:38.158Z,100935.61
2019-04-10T12:48:06.390Z,100937.70
2019-04-10T12:50:34.647Z,100937.45
2019-04-10T12:53:03.035Z,100940.81
2019-04-10T12:55:32.322Z,100931.92
2019-04-10T12:58:08.419Z,100937.85
2019-04-10T13:00:31.641Z,100935.08
2019-04-10T13:03:00.810Z,100933.34
2019-04-10T13:05:29.345Z,100929.87
2019-04-10T13:07:59.165Z,100925.05
2019-04-10T13:10:27.566Z,100925.98
2019-04-10T13:12:55.779Z,100926.67
2019-04-10T13:15:23.995Z,100921.05
2019-04-10T13:17:53.148Z,100930.36
2019-04-10T13:20:21.904Z,100938.80
2019-04-10T13:22:50.671Z,100935.92
2019-04-10T13:25:19.007Z,100937.92
2019-04-10T13:27:47.371Z,100934.88
2019-04-10T13:30:16.556Z,100934.09
2019-04-10T13:32:44.964Z,100921.36
2019-04-10T13:35:14.407Z,100930.91
2019-04-10T13:37:43.482Z,100928.05
2019-04-10T13:40:13.087Z,100930.12
2019-04-10T13:42:41.409Z,100933.23
2019-04-10T13:45:09.621Z,100929.52
2019-04-10T13:47:38.681Z,100930.86
2019-04-10T13:50:08.496Z,100930.34
2019-04-10T13:52:38.708Z,100939.03
2019-04-10T13:55:10.227Z,100924.36
2019-04-10T13:57:39.284Z,100935.36
2019-04-10T14:00:09.377Z,100924.11
2019-04-10T14:02:37.998Z,100938.54
2019-04-10T14:05:11.609Z,100941.29
2019-04-10T14:07:40.229Z,100889.82
2019-04-10T14:10:08.588Z,100935.81
2019-04-10T14:12:37.185Z,100935.53
2019-04-10T14:15:05.574Z,100927.27
2019-04-10T14:17:33.830Z,100934.99
2019-04-10T14:20:02.880Z,100938.91
2019-04-10T14:22:31.613Z,100940.48
2019-04-10T14:25:00.937Z,100932.45
2019-04-10T14:27:30.264Z,100939.63
2019-04-10T14:29:58.764Z,100942.28
2019-04-10T14:32:37.608Z,100945.92
2019-04-10T14:35:08.645Z,100936.44
2019-04-10T14:37:37.959Z,100940.28
2019-04-10T14:40:08.403Z,100942.34
2019-04-10T14:42:36.659Z,100943.19
2019-04-10T14:45:06.740Z,100948.47
2019-04-10T14:47:35.976Z,100945.20
2019-04-10T14:50:05.291Z,100947.56
2019-04-10T14:52:34.846Z,100945.28
2019-04-10T14:55:04.567Z,100955.66
2019-04-10T14:57:32.978Z,100802.00
2019-04-10T15:00:01.205Z,100952.22
2019-04-10T15:02:30.577Z,100940.61
2019-04-10T15:04:59.545Z,100953.39
2019-04-10T15:07:28.885Z,100940.55
2019-04-10T15:09:57.197Z,100962.43
2019-04-10T15:12:25.481Z,100959.36
2019-04-10T15:14:58.270Z,100957.80
2019-04-10T15:17:27.178Z,100960.70
2019-04-10T15:19:56.521Z,100792.16
2019-04-10T15:22:25.501Z,100959.89
2019-04-10T15:24:53.969Z,100965.55
2019-04-10T15:27:22.194Z,100967.70
2019-04-10T15:29:50.582Z,100966.78
2019-04-10T15:32:20.418Z,100962.08
2019-04-10T15:34:48.676Z,100968.73
2019-04-10T15:37:17.211Z,100964.59
2019-04-10T15:39:47.179Z,100966.05
2019-04-10T15:42:24.891Z,100966.48
2019-04-10T15:44:57.091Z,100963.05
2019-04-10T15:47:25.295Z,100974.45
2019-04-10T15:49:53.606Z,100968.38
2019-04-10T15:52:24.917Z,100973.52
2019-04-10T15:54:55.458Z,100977.16
2019-04-10T15:57:25.498Z,100972.11
2019-04-10T15:59:54.623Z,100977.83
2019-04-10T16:02:23.723Z,100973.52
2019-04-10T16:04:57.181Z,100979.11
2019-04-10T16:07:27.323Z,100989.72
2019-04-10T16:09:57.974Z,100983.84
2019-04-10T16:12:27.433Z,100988.52
2019-04-10T16:14:56.972Z,100985.95
2019-04-10T16:17:39.922Z,100889.54
2019-04-10T16:20:22.100Z,100997.27
2019-04-10T16:22:54.809Z,100985.36
2019-04-10T16:25:25.579Z,100992.47
2019-04-10T16:27:53.965Z,100990.00
2019-04-10T16:30:26.249Z,100999.73
2019-04-10T16:32:54.374Z,100994.52
2019-04-10T16:35:32.482Z,101005.25
2019-04-10T16:38:00.199Z,101005.45
2019-04-10T16:40:29.836Z,101008.58
2019-04-10T16:42:59.246Z,101009.69
2019-04-10T16:45:28.643Z,101017.95
2019-04-10T16:47:56.874Z,101018.70
2019-04-10T16:50:25.842Z,101019.09
2019-04-10T16:52:54.069Z,101027.70
2019-04-10T16:55:22.784Z,101031.77
2019-04-10T16:57:52.203Z,101036.59
2019-04-10T17:00:22.249Z,101038.75
2019-04-10T17:02:50.815Z,101035.66
2019-04-10T17:05:19.029Z,101039.74
2019-04-10T17:07:47.527Z,101038.00
2019-04-10T17:10:22.346Z,101042.10
2019-04-10T17:12:46.849Z,101041.32
2019-04-10T17:15:15.722Z,101039.70
2019-04-10T17:17:44.445Z,101044.66
2019-04-10T17:20:14.014Z,101041.52
2019-04-10T17:22:45.988Z,101053.00
2019-04-10T17:25:14.347Z,101055.92
2019-04-10T17:27:43.564Z,101059.44
2019-04-10T17:30:15.706Z,101060.76
2019-04-10T17:32:44.665Z,101063.59
2019-04-10T17:35:13.688Z,101069.19
2019-04-10T17:37:42.250Z,101070.29
2019-04-10T17:40:25.448Z,101072.67
2019-04-10T17:42:42.265Z,101079.14
2019-04-10T17:45:10.470Z,101075.25
2019-04-10T17:47:38.920Z,101079.56
2019-04-10T17:50:08.778Z,101078.84
2019-04-10T17:52:38.110Z,101072.48
2019-04-10T17:55:07.407Z,101086.33
2019-04-10T17:57:40.211Z,101089.85
2019-04-10T18:00:11.077Z,100991.20
2019-04-10T18:02:39.322Z,101107.80
2019-04-10T18:05:08.513Z,101103.48
2019-04-10T18:07:40.547Z,101102.45
2019-04-10T18:10:09.004Z,101108.06
2019-04-10T18:12:38.373Z,101114.23
2019-04-10T18:15:06.640Z,101117.66
2019-04-10T18:17:35.416Z,101122.44
2019-04-10T18:20:04.890Z,101125.55
2019-04-10T18:22:34.330Z,101129.34
2019-04-10T18:25:05.450Z,101132.64
2019-04-10T18:27:33.733Z,101132.48
2019-04-10T18:30:01.962Z,101136.13
2019-04-10T18:32:30.172Z,101142.47
2019-04-10T18:34:58.392Z,101151.36
2019-04-10T18:37:28.579Z,101154.17
2019-04-10T18:39:57.033Z,101153.56
2019-04-10T18:42:25.331Z,101157.20
2019-04-10T18:44:53.558Z,101158.49
2019-04-10T18:47:21.871Z,101166.45
2019-04-10T18:49:53.982Z,101166.97
2019-04-10T18:52:23.361Z,101172.86
2019-04-10T18:54:52.019Z,101177.98
2019-04-10T18:57:20.344Z,101176.99
2019-04-10T19:00:02.082Z,101172.85
2019-04-10T19:02:32.829Z,101186.88
2019-04-10T19:05:05.697Z,101191.38
2019-04-10T19:07:34.345Z,101189.17
2019-04-10T19:10:04.309Z,101198.28
2019-04-10T19:12:32.827Z,101203.67
2019-04-10T19:15:01.069Z,101208.95
2019-04-10T19:17:29.365Z,101212.02
2019-04-10T19:19:57.579Z,101213.27
2019-04-10T19:22:26.730Z,101217.68
2019-04-10T19:24:54.928Z,101220.34
2019-04-10T19:27:25.052Z,101223.39
2019-04-10T19:29:53.048Z,101227.31
2019-04-10T19:32:22.922Z,101222.98
2019-04-10T19:34:51.803Z,101226.87
2019-04-10T19:37:20.642Z,101230.77
2019-04-10T19:39:48.850Z,101233.01
2019-04-10T19:42:17.437Z,101239.95
2019-04-10T19:44:45.677Z,101239.89
2019-04-10T19:47:14.550Z,101246.42
2019-04-10T19:49:42.895Z,101239.04
2019-04-10T19:52:11.979Z,101252.48
2019-04-10T19:54:40.882Z,101247.77
2019-04-10T19:57:09.063Z,101253.42
2019-04-10T19:59:37.287Z,101252.58
2019-04-10T20:02:06.649Z,101256.47
2019-04-10T20:04:34.958Z,101260.37
2019-04-10T20:07:03.161Z,101258.64
2019-04-10T20:09:32.569Z,101259.95
2019-04-10T20:12:00.957Z,101261.24
2019-04-10T20:14:29.150Z,101263.87
2019-04-10T20:16:57.657Z,101263.84
2019-04-10T20:19:26.637Z,101267.33
2019-04-10T20:21:54.855Z,101275.58
2019-04-10T20:24:23.060Z,101278.63
2019-04-10T20:26:51.813Z,101280.34
2019-04-10T20:29:21.154Z,101283.39
2019-04-10T20:31:50.640Z,101282.50
2019-04-10T20:34:19.133Z,101291.60
2019-04-10T20:36:47.437Z,101291.56
2019-04-10T20:39:16.876Z,101293.70
2019-04-10T20:41:52.001Z,101296.73
2019-04-10T20:44:15.166Z,101299.27
2019-04-10T20:46:46.637Z,101305.31
2019-04-10T20:49:14.771Z,101311.37
2019-04-10T20:51:43.938Z,101311.84
2019-04-10T20:54:12.771Z,101311.42
2019-04-10T20:56:41.112Z,101313.56
2019-04-10T20:59:09.962Z,101322.69
2019-04-10T21:01:39.287Z,101317.88
2019-04-10T21:04:07.577Z,101328.14
2019-04-10T21:06:36.418Z,101331.31
2019-04-10T21:09:07.501Z,101330.87
2019-04-10T21:11:35.699Z,101328.63
2019-04-10T21:14:05.230Z,101330.81
2019-04-10T21:16:33.677Z,101328.97
2019-04-10T21:19:02.372Z,101340.14
2019-04-10T21:21:30.784Z,101339.27
2019-04-10T21:23:58.949Z,101342.39
2019-04-10T21:26:28.213Z,101346.67
2019-04-10T21:28:56.760Z,101346.53
2019-04-10T21:31:42.826Z,101339.48
2019-04-10T21:34:21.865Z,101345.66
2019-04-10T21:36:50.983Z,101349.95
2019-04-10T21:39:22.887Z,101347.66
2019-04-10T21:41:51.088Z,101355.87
2019-04-10T21:44:20.391Z,101358.46
2019-04-10T21:46:50.416Z,101356.83
2019-04-10T21:49:19.639Z,101364.48
2019-04-10T21:51:48.093Z,101368.33
2019-04-10T21:54:16.371Z,101369.97
2019-04-10T21:56:45.116Z,101367.31
2019-04-10T21:59:16.021Z,101374.59
2019-04-10T22:01:43.360Z,101371.94
2019-04-10T22:04:11.642Z,101374.49
2019-04-10T22:06:41.485Z,101371.48
2019-04-10T22:09:28.594Z,101377.16
2019-04-10T22:11:58.468Z,101378.48
2019-04-10T22:14:26.636Z,101377.19
2019-04-10T22:16:54.841Z,101375.38
2019-04-10T22:19:24.446Z,101378.83
2019-04-10T22:21:53.667Z,101375.34
2019-04-10T22:24:21.954Z,101376.54
2019-04-10T22:26:50.193Z,101382.58
2019-04-10T22:29:19.503Z,101380.43
2019-04-10T22:31:47.790Z,101384.70
2019-04-10T22:34:17.071Z,101385.66
2019-04-10T22:36:45.372Z,101380.77
2019-04-10T22:39:15.226Z,101383.03
2019-04-10T22:41:43.500Z,101385.47
2019-04-10T22:44:11.830Z,101387.95
2019-04-10T22:46:40.466Z,101387.83
2019-04-10T22:49:08.685Z,101385.07
2019-04-10T22:51:37.698Z,101396.16
2019-04-10T22:54:06.119Z,101392.77
2019-04-10T22:56:34.405Z,101395.36
2019-04-10T22:59:03.855Z,101391.83
2019-04-10T23:01:33.315Z,101395.04
2019-04-10T23:04:01.774Z,101397.10
2019-04-10T23:06:29.974Z,101396.42
2019-04-10T23:08:58.171Z,101398.08
2019-04-10T23:11:33.505Z,101396.39
2019-04-10T23:13:56.420Z,101401.91
2019-04-10T23:16:24.613Z,101398.23
2019-04-10T23:18:53.864Z,101396.20
2019-04-10T23:21:22.821Z,101405.31
2019-04-10T23:23:51.632Z,101406.21
2019-04-10T23:26:20.765Z,101401.83
2019-04-10T23:28:49.792Z,101405.11
2019-04-10T23:31:17.999Z,101402.81
2019-04-10T23:33:46.208Z,101400.53
2019-04-10T23:36:14.421Z,101403.01
2019-04-10T23:38:43.709Z,101408.54
2019-04-10T23:41:12.012Z,101405.39
2019-04-10T23:43:40.203Z,101409.72
2019-04-10T23:46:08.445Z,101410.55
2019-04-10T23:48:37.107Z,101412.27
2019-04-10T23:51:05.317Z,101412.27
2019-04-10T23:53:33.531Z,101414.64
2019-04-10T23:56:02.145Z,101422.28
2019-04-10T23:58:30.430Z,101421.77
